Time;durP1;ratioP1;P1;durP2;ratioP2;P2;SDS_P1;SDS_P2;PMS_P1;PMS_P2;Temp;Humidity;BMP_temperature;BMP_pressure;BME280_temperature;BME280_humidity;BME280_pressure;Samples;Min_cycle;Max_cycle;Signal;HPM_P1;HPM_P2
2022/01/08 00:01:27;;;;;;;0.43;0.30;;;;;;;;;;4182790;28;20472;-34
2022/01/08 00:03:28;;;;;;;0.52;0.22;;;;;;;;;;4182743;28;20456;-35
2022/01/08 00:05:29;;;;;;;0.10;0.10;;;;;;;;;;4182724;28;20136;-33
2022/01/08 00:07:30;;;;;;;0.22;0.22;;;;;;;;;;4182042;28;20176;-34
2022/01/08 00:09:31;;;;;;;0.28;0.20;;;;;;;;;;4182290;28;20045;-35
2022/01/08 00:11:32;;;;;;;0.10;0.10;;;;;;;;;;4182434;28;20111;-35
2022/01/08 00:13:34;;;;;;;0.63;0.30;;;;;;;;;;4182245;28;20045;-33
2022/01/08 00:15:36;;;;;;;0.15;0.15;;;;;;;;;;4182388;28;20052;-32
2022/01/08 00:17:37;;;;;;;0.40;0.15;;;;;;;;;;4182184;28;20045;-34
2022/01/08 00:19:38;;;;;;;0.20;0.10;;;;;;;;;;4182637;28;20102;-32
2022/01/08 00:21:39;;;;;;;0.20;0.20;;;;;;;;;;4182217;28;20075;-39
2022/01/08 00:23:40;;;;;;;0.20;0.13;;;;;;;;;;4180192;28;20109;-35
2022/01/08 00:25:41;;;;;;;0.17;0.17;;;;;;;;;;4181705;28;20103;-36
2022/01/08 00:27:42;;;;;;;0.10;0.10;;;;;;;;;;4181916;28;20052;-34
2022/01/08 00:29:43;;;;;;;0.10;0.10;;;;;;;;;;4180912;28;20053;-35
2022/01/08 00:31:44;;;;;;;0.52;0.20;;;;;;;;;;4182185;28;20083;-32
2022/01/08 00:33:47;;;;;;;0.10;0.10;;;;;;;;;;4182371;28;20120;-35
2022/01/08 00:35:47;;;;;;;0.13;0.10;;;;;;;;;;4182330;28;20049;-32
2022/01/08 00:37:48;;;;;;;0.52;0.20;;;;;;;;;;4181679;28;20114;-32
2022/01/08 00:39:49;;;;;;;0.20;0.10;;;;;;;;;;4181934;28;20053;-34
2022/01/08 00:41:50;;;;;;;0.30;0.28;;;;;;;;;;4181802;28;20103;-33
2022/01/08 00:43:52;;;;;;;0.20;0.20;;;;;;;;;;4182011;28;20511;-35
2022/01/08 00:45:53;;;;;;;0.17;0.17;;;;;;;;;;4182170;28;20094;-32
2022/01/08 00:47:54;;;;;;;0.20;0.20;;;;;;;;;;4181989;28;20528;-33
2022/01/08 00:49:55;;;;;;;0.10;0.10;;;;;;;;;;4181891;28;20053;-34
2022/01/08 00:51:55;;;;;;;0.10;0.10;;;;;;;;;;4181281;28;20056;-35
2022/01/08 00:53:56;;;;;;;0.05;0.05;;;;;;;;;;4181999;28;20053;-33
2022/01/08 00:55:57;;;;;;;0.65;0.25;;;;;;;;;;4182037;28;20480;-34
2022/01/08 00:57:58;;;;;;;0.20;0.20;;;;;;;;;;4181867;28;20520;-36
2022/01/08 00:59:59;;;;;;;0.30;0.17;;;;;;;;;;4181748;28;20099;-32
2022/01/08 01:02:00;;;;;;;0.32;0.20;;;;;;;;;;4181790;28;20101;-35
2022/01/08 01:04:01;;;;;;;0.20;0.10;;;;;;;;;;4181620;28;20059;-38
2022/01/08 01:06:02;;;;;;;0.30;0.10;;;;;;;;;;4181529;28;20516;-33
2022/01/08 01:08:03;;;;;;;0.40;0.10;;;;;;;;;;4181280;28;20048;-35
2022/01/08 01:10:05;;;;;;;0.30;0.20;;;;;;;;;;4181565;28;20394;-32
2022/01/08 01:12:06;;;;;;;0.15;0.10;;;;;;;;;;4181349;28;20049;-32
2022/01/08 01:14:07;;;;;;;0.10;0.10;;;;;;;;;;4181768;28;20158;-33
2022/01/08 01:16:08;;;;;;;0.20;0.10;;;;;;;;;;4181650;28;20065;-36
2022/01/08 01:18:09;;;;;;;0.55;0.20;;;;;;;;;;4181328;28;20238;-35
2022/01/08 01:20:12;;;;;;;0.10;0.10;;;;;;;;;;4181472;28;20048;-36
2022/01/08 01:22:18;;;;;;;0.20;0.10;;;;;;;;;;4180940;28;20048;-32
2022/01/08 01:24:22;;;;;;;0.10;0.10;;;;;;;;;;4181228;28;20057;-34
2022/01/08 01:26:27;;;;;;;0.10;0.10;;;;;;;;;;4181326;28;20049;-33
2022/01/08 01:28:50;;;;;;;0.10;0.10;;;;;;;;;;4181154;28;20053;-36
2022/01/08 01:42:40;;;;;;;0.20;0.10;;;;;;;;;;4180998;28;20570;-33
2022/01/08 01:47:02;;;;;;;0.17;0.13;;;;;;;;;;4180917;28;20053;-32
2022/01/08 01:49:04;;;;;;;0.25;0.20;;;;;;;;;;4180998;28;20053;-32
2022/01/08 01:51:05;;;;;;;0.10;0.10;;;;;;;;;;4180847;28;20051;-34
2022/01/08 01:53:06;;;;;;;0.15;0.10;;;;;;;;;;4179105;28;20478;-37
2022/01/08 01:55:07;;;;;;;0.30;0.20;;;;;;;;;;4180843;28;20123;-34
2022/01/08 01:57:09;;;;;;;0.20;0.10;;;;;;;;;;4180728;28;20048;-34
2022/01/08 01:59:12;;;;;;;0.20;0.20;;;;;;;;;;4180834;28;20500;-34
2022/01/08 02:01:14;;;;;;;0.08;0.08;;;;;;;;;;4180901;28;20060;-37
2022/01/08 02:03:15;;;;;;;0.20;0.20;;;;;;;;;;4180592;28;20052;-32
2022/01/08 02:05:16;;;;;;;0.10;0.10;;;;;;;;;;4180898;28;20047;-32
2022/01/08 02:07:17;;;;;;;0.20;0.17;;;;;;;;;;4180203;28;20093;-34
2022/01/08 02:09:18;;;;;;;0.10;0.10;;;;;;;;;;4180747;28;20374;-32
2022/01/08 02:11:20;;;;;;;0.20;0.20;;;;;;;;;;4180696;28;20118;-35
2022/01/08 02:13:25;;;;;;;0.20;0.10;;;;;;;;;;4180517;28;20111;-33
2022/01/08 02:15:26;;;;;;;0.10;0.10;;;;;;;;;;4180733;28;20045;-33
2022/01/08 02:17:27;;;;;;;0.10;0.10;;;;;;;;;;4180376;28;20065;-32
2022/01/08 02:19:28;;;;;;;0.10;0.10;;;;;;;;;;4180514;28;20052;-32
2022/01/08 02:21:29;;;;;;;0.20;0.10;;;;;;;;;;4180582;28;20053;-34
2022/01/08 02:23:30;;;;;;;0.10;0.10;;;;;;;;;;4179805;28;20522;-32
2022/01/08 02:25:31;;;;;;;0.28;0.17;;;;;;;;;;4180698;28;20064;-34
2022/01/08 02:27:32;;;;;;;0.32;0.17;;;;;;;;;;4180182;28;20088;-33
2022/01/08 02:29:33;;;;;;;0.10;0.10;;;;;;;;;;4180441;28;20191;-32
2022/01/08 02:31:34;;;;;;;0.20;0.10;;;;;;;;;;4180406;28;20191;-34
2022/01/08 02:33:37;;;;;;;0.10;0.10;;;;;;;;;;4178855;28;20056;-32
2022/01/08 02:35:38;;;;;;;0.10;0.10;;;;;;;;;;4180684;28;20045;-32
2022/01/08 02:37:39;;;;;;;0.10;0.10;;;;;;;;;;4180097;28;20056;-33
2022/01/08 02:39:42;;;;;;;0.20;0.20;;;;;;;;;;4180480;28;20472;-34
2022/01/08 02:41:43;;;;;;;0.10;0.10;;;;;;;;;;4180186;28;20057;-33
2022/01/08 02:43:52;;;;;;;0.20;0.20;;;;;;;;;;4180452;28;20106;-34
2022/01/08 02:45:53;;;;;;;0.20;0.10;;;;;;;;;;4180496;28;20049;-33
2022/01/08 02:47:55;;;;;;;0.10;0.10;;;;;;;;;;4179424;28;20076;-34
2022/01/08 02:49:56;;;;;;;0.10;0.10;;;;;;;;;;4180177;28;20508;-33
2022/01/08 02:51:56;;;;;;;0.10;0.10;;;;;;;;;;4179939;28;20091;-32
2022/01/08 02:53:57;;;;;;;0.10;0.10;;;;;;;;;;4180199;28;20097;-31
2022/01/08 02:55:58;;;;;;;0.10;0.10;;;;;;;;;;4180196;28;20055;-46
2022/01/08 02:57:59;;;;;;;0.10;0.10;;;;;;;;;;4180052;28;20088;-36
2022/01/08 03:00:00;;;;;;;0.50;0.20;;;;;;;;;;4162426;28;20092;-34
2022/01/08 03:02:01;;;;;;;0.17;0.10;;;;;;;;;;4179964;28;20061;-33
2022/01/08 03:04:02;;;;;;;0.10;0.10;;;;;;;;;;4180140;28;20481;-34
2022/01/08 03:06:03;;;;;;;0.10;0.10;;;;;;;;;;4180292;28;20159;-33
2022/01/08 03:08:04;;;;;;;0.20;0.20;;;;;;;;;;4179721;28;20473;-34
2022/01/08 03:10:06;;;;;;;0.17;0.17;;;;;;;;;;4180068;28;20053;-35
2022/01/08 03:12:08;;;;;;;0.20;0.20;;;;;;;;;;4179982;28;20053;-32
2022/01/08 03:14:09;;;;;;;0.20;0.10;;;;;;;;;;4180155;28;20057;-35
2022/01/08 03:16:10;;;;;;;0.00;0.00;;;;;;;;;;4179973;28;20057;-34
2022/01/08 03:18:11;;;;;;;0.20;0.10;;;;;;;;;;4179984;28;20079;-32
2022/01/08 03:20:14;;;;;;;0.17;0.10;;;;;;;;;;4180001;28;20048;-33
2022/01/08 03:22:15;;;;;;;0.10;0.10;;;;;;;;;;4179482;28;20409;-34
2022/01/08 03:24:24;;;;;;;0.20;0.15;;;;;;;;;;4179855;28;20064;-36
2022/01/08 03:26:27;;;;;;;0.00;0.00;;;;;;;;;;4178742;28;20122;-35
2022/01/08 03:28:28;;;;;;;0.10;0.10;;;;;;;;;;4180103;28;20048;-34
2022/01/08 03:30:29;;;;;;;0.10;0.10;;;;;;;;;;4180247;28;20480;-37
2022/01/08 03:32:29;;;;;;;0.20;0.10;;;;;;;;;;4180095;28;20430;-34
2022/01/08 03:34:31;;;;;;;0.10;0.10;;;;;;;;;;4179924;28;20056;-32
2022/01/08 03:36:32;;;;;;;0.10;0.10;;;;;;;;;;4179917;28;20132;-36
2022/01/08 03:38:33;;;;;;;0.47;0.20;;;;;;;;;;4179521;28;20052;-33
2022/01/08 03:40:34;;;;;;;0.10;0.10;;;;;;;;;;4179810;28;20045;-33
2022/01/08 03:42:35;;;;;;;0.10;0.10;;;;;;;;;;4178412;28;20095;-32
2022/01/08 03:44:36;;;;;;;0.57;0.10;;;;;;;;;;4179869;28;20053;-36
2022/01/08 03:46:37;;;;;;;0.10;0.10;;;;;;;;;;4179858;28;20086;-33
2022/01/08 03:48:47;;;;;;;0.10;0.10;;;;;;;;;;4179909;28;20422;-32
2022/01/08 03:50:48;;;;;;;0.15;0.15;;;;;;;;;;4179858;28;20049;-36
2022/01/08 03:52:50;;;;;;;0.10;0.10;;;;;;;;;;4179230;28;20095;-36
2022/01/08 03:54:51;;;;;;;0.35;0.10;;;;;;;;;;4177614;28;20056;-32
2022/01/08 03:56:52;;;;;;;0.10;0.10;;;;;;;;;;4179530;28;20485;-32
2022/01/08 03:58:53;;;;;;;0.10;0.10;;;;;;;;;;4179693;28;20100;-34
2022/01/08 04:00:54;;;;;;;0.10;0.10;;;;;;;;;;4182147;28;20106;-34
2022/01/08 04:02:55;;;;;;;0.38;0.00;;;;;;;;;;4181310;28;20057;-33
2022/01/08 04:04:56;;;;;;;0.13;0.10;;;;;;;;;;4182622;28;20136;-33
2022/01/08 04:06:57;;;;;;;0.13;0.10;;;;;;;;;;4182055;28;20049;-34
2022/01/08 04:08:58;;;;;;;0.10;0.10;;;;;;;;;;4181366;28;20195;-32
2022/01/08 04:10:59;;;;;;;0.10;0.10;;;;;;;;;;4182550;28;20404;-36
2022/01/08 04:13:08;;;;;;;0.10;0.10;;;;;;;;;;4181141;28;20048;-33
2022/01/08 04:17:22;;;;;;;0.13;0.10;;;;;;;;;;4182295;28;20477;-36
2022/01/08 04:19:24;;;;;;;0.10;0.10;;;;;;;;;;4182397;28;20057;-34
2022/01/08 04:23:34;;;;;;;0.15;0.10;;;;;;;;;;4181742;28;20068;-33
2022/01/08 04:25:35;;;;;;;0.10;0.10;;;;;;;;;;4182285;28;20451;-33
2022/01/08 04:27:36;;;;;;;0.10;0.10;;;;;;;;;;4181978;28;20102;-38
2022/01/08 04:29:37;;;;;;;0.10;0.00;;;;;;;;;;4182291;28;20060;-32
2022/01/08 04:31:38;;;;;;;0.10;0.10;;;;;;;;;;4182242;28;20132;-34
2022/01/08 04:33:39;;;;;;;0.20;0.10;;;;;;;;;;4182153;28;20049;-33
2022/01/08 04:35:40;;;;;;;0.10;0.10;;;;;;;;;;4182220;28;20060;-35
2022/01/08 04:37:41;;;;;;;0.17;0.00;;;;;;;;;;4181604;28;20052;-34
2022/01/08 04:39:42;;;;;;;0.25;0.08;;;;;;;;;;4181991;28;20098;-37
2022/01/08 04:41:43;;;;;;;0.00;0.00;;;;;;;;;;4181879;28;20147;-35
2022/01/08 04:43:44;;;;;;;0.00;0.00;;;;;;;;;;4180607;28;20410;-33
2022/01/08 04:45:45;;;;;;;0.10;0.10;;;;;;;;;;4182013;28;20084;-36
2022/01/08 04:47:46;;;;;;;0.10;0.10;;;;;;;;;;4181813;28;20440;-34
2022/01/08 04:49:47;;;;;;;0.00;0.00;;;;;;;;;;4182081;28;20075;-34
2022/01/08 04:51:48;;;;;;;0.10;0.10;;;;;;;;;;4181395;28;20500;-33
2022/01/08 04:53:49;;;;;;;0.10;0.10;;;;;;;;;;4182101;28;20057;-35
2022/01/08 04:55:50;;;;;;;0.20;0.10;;;;;;;;;;4180522;28;20053;-37
2022/01/08 04:57:51;;;;;;;0.10;0.10;;;;;;;;;;4181553;28;20139;-34
2022/01/08 04:59:52;;;;;;;0.00;0.00;;;;;;;;;;4182032;28;20061;-33
2022/01/08 05:01:53;;;;;;;0.22;0.15;;;;;;;;;;4181865;28;20576;-37
2022/01/08 05:03:54;;;;;;;0.10;0.10;;;;;;;;;;4181909;28;20591;-33
2022/01/08 05:05:55;;;;;;;0.10;0.10;;;;;;;;;;4181902;28;20057;-33
2022/01/08 05:07:56;;;;;;;0.13;0.13;;;;;;;;;;4181362;28;20159;-35
2022/01/08 05:09:57;;;;;;;0.00;0.00;;;;;;;;;;4196779;28;20056;-34
2022/01/08 05:11:58;;;;;;;0.30;0.00;;;;;;;;;;4181283;28;20487;-32
2022/01/08 05:13:59;;;;;;;0.38;0.10;;;;;;;;;;4181708;28;20086;-34
2022/01/08 05:16:00;;;;;;;0.00;0.00;;;;;;;;;;4180194;28;20053;-33
2022/01/08 05:18:03;;;;;;;0.10;0.10;;;;;;;;;;4181375;28;20408;-34
2022/01/08 05:20:09;;;;;;;0.10;0.10;;;;;;;;;;4181785;28;20065;-37
2022/01/08 05:22:18;;;;;;;0.17;0.10;;;;;;;;;;4181037;28;20068;-33
2022/01/08 05:24:19;;;;;;;0.10;0.00;;;;;;;;;;4181344;28;20056;-33
2022/01/08 05:26:20;;;;;;;0.10;0.10;;;;;;;;;;4181424;28;20464;-33
2022/01/08 05:28:21;;;;;;;0.20;0.10;;;;;;;;;;4181076;28;20049;-33
2022/01/08 05:30:23;;;;;;;0.10;0.10;;;;;;;;;;4181291;28;20102;-35
2022/01/08 05:32:24;;;;;;;0.10;0.10;;;;;;;;;;4181091;28;20045;-35
2022/01/08 05:34:25;;;;;;;0.08;0.08;;;;;;;;;;4181258;28;20095;-35
2022/01/08 05:36:26;;;;;;;0.00;0.00;;;;;;;;;;4181179;28;20400;-34
2022/01/08 05:38:27;;;;;;;0.10;0.10;;;;;;;;;;4180630;28;20113;-33
2022/01/08 05:40:28;;;;;;;0.20;0.10;;;;;;;;;;4181198;28;20060;-34
2022/01/08 05:42:29;;;;;;;0.10;0.10;;;;;;;;;;4163489;28;20057;-33
2022/01/08 05:44:30;;;;;;;0.10;0.10;;;;;;;;;;4181170;28;20102;-33
2022/01/08 05:46:31;;;;;;;0.30;0.10;;;;;;;;;;4179727;28;20125;-35
2022/01/08 05:48:32;;;;;;;0.10;0.10;;;;;;;;;;4181122;28;20041;-32
2022/01/08 05:50:33;;;;;;;0.10;0.10;;;;;;;;;;4179689;28;20134;-33
2022/01/08 05:52:34;;;;;;;0.10;0.10;;;;;;;;;;4180469;28;20049;-33
2022/01/08 05:54:35;;;;;;;0.10;0.08;;;;;;;;;;4181117;28;20044;-33
2022/01/08 05:56:36;;;;;;;0.10;0.10;;;;;;;;;;4180760;28;20167;-33
2022/01/08 05:58:38;;;;;;;0.17;0.10;;;;;;;;;;4180754;28;20110;-35
2022/01/08 06:00:39;;;;;;;0.10;0.08;;;;;;;;;;4181085;28;20148;-33
2022/01/08 06:02:40;;;;;;;0.30;0.20;;;;;;;;;;4180915;28;20111;-32
2022/01/08 06:04:41;;;;;;;0.10;0.10;;;;;;;;;;4180669;28;20048;-32
2022/01/08 06:06:43;;;;;;;0.20;0.10;;;;;;;;;;4180306;28;20136;-35
2022/01/08 06:08:44;;;;;;;0.00;0.00;;;;;;;;;;4180746;28;20095;-32
2022/01/08 06:10:45;;;;;;;0.05;0.05;;;;;;;;;;4180626;28;20045;-35
2022/01/08 06:12:46;;;;;;;0.32;0.10;;;;;;;;;;4180545;28;20040;-32
2022/01/08 06:14:47;;;;;;;0.10;0.10;;;;;;;;;;4180663;28;20476;-32
2022/01/08 06:16:49;;;;;;;0.10;0.10;;;;;;;;;;4179378;28;20091;-36
2022/01/08 06:18:50;;;;;;;0.47;0.20;;;;;;;;;;4180833;28;20091;-35
2022/01/08 06:20:51;;;;;;;0.10;0.00;;;;;;;;;;4180644;28;20056;-32
2022/01/08 06:22:52;;;;;;;0.00;0.00;;;;;;;;;;4179151;28;20053;-33
2022/01/08 06:24:53;;;;;;;0.00;0.00;;;;;;;;;;4180482;28;20092;-33
2022/01/08 06:26:54;;;;;;;0.10;0.10;;;;;;;;;;4180337;28;20093;-32
2022/01/08 06:28:54;;;;;;;0.00;0.00;;;;;;;;;;4180778;28;20061;-33
2022/01/08 06:30:56;;;;;;;0.10;0.10;;;;;;;;;;4180420;28;20124;-32
2022/01/08 06:32:57;;;;;;;0.10;0.10;;;;;;;;;;4180215;28;20477;-33
2022/01/08 06:34:57;;;;;;;0.10;0.10;;;;;;;;;;4179063;28;20090;-32
2022/01/08 06:36:59;;;;;;;0.00;0.00;;;;;;;;;;4179884;28;20063;-35
2022/01/08 06:38:59;;;;;;;0.10;0.10;;;;;;;;;;4180309;28;20135;-32
2022/01/08 06:41:00;;;;;;;0.00;0.00;;;;;;;;;;4180379;28;20057;-34
2022/01/08 06:43:01;;;;;;;0.00;0.00;;;;;;;;;;4180239;28;20454;-33
2022/01/08 06:45:02;;;;;;;0.10;0.10;;;;;;;;;;4162548;28;20103;-32
2022/01/08 06:47:03;;;;;;;0.20;0.10;;;;;;;;;;4180183;28;20049;-32
2022/01/08 06:49:04;;;;;;;0.00;0.00;;;;;;;;;;4180459;28;20523;-34
2022/01/08 06:51:05;;;;;;;0.10;0.10;;;;;;;;;;4180268;28;20519;-32
2022/01/08 06:53:06;;;;;;;0.00;0.00;;;;;;;;;;4179733;28;20065;-35
2022/01/08 06:55:07;;;;;;;0.30;0.10;;;;;;;;;;4180208;28;20143;-34
2022/01/08 06:57:08;;;;;;;0.10;0.10;;;;;;;;;;4178849;28;20102;-37
2022/01/08 06:59:09;;;;;;;0.00;0.00;;;;;;;;;;4180257;28;20060;-34
2022/01/08 07:01:10;;;;;;;0.10;0.00;;;;;;;;;;4180230;28;20080;-34
2022/01/08 07:03:11;;;;;;;0.10;0.10;;;;;;;;;;4180118;28;20504;-32
2022/01/08 07:05:12;;;;;;;0.10;0.10;;;;;;;;;;4180188;28;20053;-33
2022/01/08 07:07:14;;;;;;;0.00;0.00;;;;;;;;;;4179588;28;20060;-34
2022/01/08 07:09:15;;;;;;;0.10;0.10;;;;;;;;;;4180028;28;20485;-32
2022/01/08 07:11:19;;;;;;;0.20;0.10;;;;;;;;;;4180190;28;20056;-36
2022/01/08 07:13:20;;;;;;;0.00;0.00;;;;;;;;;;4180069;28;20045;-34
2022/01/08 07:15:21;;;;;;;0.00;0.00;;;;;;;;;;4180379;28;20065;-35
2022/01/08 07:17:22;;;;;;;0.05;0.00;;;;;;;;;;4180207;28;20396;-33
2022/01/08 07:19:23;;;;;;;0.00;0.00;;;;;;;;;;4180356;28;20319;-33
2022/01/08 07:21:24;;;;;;;0.10;0.10;;;;;;;;;;4179974;28;20057;-34
2022/01/08 07:23:25;;;;;;;0.10;0.10;;;;;;;;;;4177884;28;20059;-33
2022/01/08 07:25:26;;;;;;;0.10;0.10;;;;;;;;;;4179969;28;20059;-33
2022/01/08 07:27:30;;;;;;;0.10;0.10;;;;;;;;;;4179884;28;20088;-32
2022/01/08 07:29:31;;;;;;;0.10;0.10;;;;;;;;;;4179925;28;20559;-35
2022/01/08 07:31:32;;;;;;;0.08;0.08;;;;;;;;;;4179932;28;20045;-35
2022/01/08 07:33:33;;;;;;;0.15;0.10;;;;;;;;;;4195084;28;20057;-32
2022/01/08 07:35:34;;;;;;;0.08;0.08;;;;;;;;;;4198393;28;20048;-32
2022/01/08 07:37:35;;;;;;;0.20;0.00;;;;;;;;;;4199197;28;20048;-33
2022/01/08 07:39:36;;;;;;;0.30;0.15;;;;;;;;;;4199400;28;20106;-34
2022/01/08 07:41:37;;;;;;;0.10;0.10;;;;;;;;;;4199443;28;20472;-35
2022/01/08 07:43:38;;;;;;;0.00;0.00;;;;;;;;;;4199948;28;20099;-32
2022/01/08 07:45:39;;;;;;;0.00;0.00;;;;;;;;;;4199735;28;20098;-34
2022/01/08 07:47:40;;;;;;;0.10;0.10;;;;;;;;;;4199501;28;20106;-38
2022/01/08 07:49:41;;;;;;;0.10;0.10;;;;;;;;;;4199390;28;20493;-36
2022/01/08 07:51:42;;;;;;;0.00;0.00;;;;;;;;;;4198948;28;20044;-36
2022/01/08 07:53:43;;;;;;;0.10;0.10;;;;;;;;;;4199187;28;20097;-34
2022/01/08 07:55:43;;;;;;;0.10;0.10;;;;;;;;;;4199282;28;20185;-32
2022/01/08 07:57:44;;;;;;;0.22;0.08;;;;;;;;;;4199194;28;20083;-34
2022/01/08 07:59:45;;;;;;;0.00;0.00;;;;;;;;;;4199464;28;20048;-32
2022/01/08 08:01:46;;;;;;;0.22;0.10;;;;;;;;;;4199052;28;20097;-33
2022/01/08 08:03:48;;;;;;;0.00;0.00;;;;;;;;;;4198242;28;20090;-34
2022/01/08 08:05:49;;;;;;;0.00;0.00;;;;;;;;;;4199098;28;20056;-36
2022/01/08 08:07:50;;;;;;;0.20;0.10;;;;;;;;;;4198389;28;20049;-33
2022/01/08 08:09:51;;;;;;;0.00;0.00;;;;;;;;;;4199220;28;20479;-34
2022/01/08 08:11:51;;;;;;;0.20;0.10;;;;;;;;;;4198983;28;20105;-32
2022/01/08 08:13:52;;;;;;;0.00;0.00;;;;;;;;;;4199048;28;20511;-34
2022/01/08 08:15:53;;;;;;;0.00;0.00;;;;;;;;;;4199329;28;20052;-33
2022/01/08 08:17:54;;;;;;;0.32;0.10;;;;;;;;;;4198790;28;20052;-32
2022/01/08 08:19:55;;;;;;;0.00;0.00;;;;;;;;;;4198997;28;20098;-33
2022/01/08 08:21:56;;;;;;;0.10;0.10;;;;;;;;;;4198547;28;20060;-35
2022/01/08 08:23:59;;;;;;;0.10;0.10;;;;;;;;;;4198158;28;20488;-35
2022/01/08 08:26:00;;;;;;;0.10;0.10;;;;;;;;;;4198523;28;20070;-32
2022/01/08 08:28:02;;;;;;;0.00;0.00;;;;;;;;;;4198939;28;20269;-32
2022/01/08 08:30:04;;;;;;;0.15;0.10;;;;;;;;;;4198794;28;20095;-34
2022/01/08 08:32:05;;;;;;;0.10;0.10;;;;;;;;;;4198653;28;20373;-33
2022/01/08 08:34:06;;;;;;;0.15;0.00;;;;;;;;;;4198986;28;20040;-34
2022/01/08 08:36:07;;;;;;;0.08;0.00;;;;;;;;;;4198657;28;20094;-34
2022/01/08 08:38:08;;;;;;;0.00;0.00;;;;;;;;;;4198042;28;20294;-32
2022/01/08 08:40:10;;;;;;;0.10;0.10;;;;;;;;;;4198665;28;20147;-33
2022/01/08 08:42:10;;;;;;;0.00;0.00;;;;;;;;;;4198605;28;20072;-33
2022/01/08 08:44:11;;;;;;;0.20;0.10;;;;;;;;;;4198592;28;20125;-33
2022/01/08 08:46:12;;;;;;;0.00;0.00;;;;;;;;;;4197699;28;20095;-34
2022/01/08 08:48:13;;;;;;;0.00;0.00;;;;;;;;;;4198356;28;20190;-34
2022/01/08 08:50:15;;;;;;;0.10;0.10;;;;;;;;;;4198405;28;20055;-32
2022/01/08 08:52:16;;;;;;;0.08;0.08;;;;;;;;;;4198253;28;20048;-33
2022/01/08 08:54:17;;;;;;;0.05;0.05;;;;;;;;;;4198623;28;20071;-34
2022/01/08 08:56:18;;;;;;;0.05;0.05;;;;;;;;;;4198602;28;20059;-39
2022/01/08 08:58:19;;;;;;;0.10;0.00;;;;;;;;;;4198260;28;20048;-36
2022/01/08 09:00:20;;;;;;;0.00;0.00;;;;;;;;;;4198423;28;20115;-33
2022/01/08 09:02:22;;;;;;;0.00;0.00;;;;;;;;;;4198213;28;20407;-33
2022/01/08 09:04:23;;;;;;;0.10;0.10;;;;;;;;;;4198472;28;20102;-36
2022/01/08 09:06:26;;;;;;;0.10;0.10;;;;;;;;;;4198200;28;20097;-36
2022/01/08 09:08:27;;;;;;;0.05;0.05;;;;;;;;;;4197864;28;20053;-32
2022/01/08 09:10:28;;;;;;;0.10;0.10;;;;;;;;;;4198152;28;20155;-32
2022/01/08 09:12:28;;;;;;;0.10;0.10;;;;;;;;;;4198097;28;20052;-36
2022/01/08 09:14:29;;;;;;;0.00;0.00;;;;;;;;;;4198057;28;20044;-32
2022/01/08 09:16:30;;;;;;;0.00;0.00;;;;;;;;;;4197437;28;20050;-35
2022/01/08 09:18:31;;;;;;;0.10;0.10;;;;;;;;;;4197950;28;20103;-34
2022/01/08 09:20:32;;;;;;;0.10;0.10;;;;;;;;;;4198145;28;20052;-33
2022/01/08 09:22:34;;;;;;;0.00;0.00;;;;;;;;;;4197498;28;20057;-32
2022/01/08 09:24:36;;;;;;;0.20;0.10;;;;;;;;;;4196724;28;20056;-38
2022/01/08 09:26:37;;;;;;;0.10;0.05;;;;;;;;;;4197769;28;20048;-33
2022/01/08 09:28:38;;;;;;;0.17;0.00;;;;;;;;;;4197971;28;20094;-33
2022/01/08 09:30:39;;;;;;;0.10;0.05;;;;;;;;;;4197996;28;20056;-35
2022/01/08 09:32:45;;;;;;;0.10;0.10;;;;;;;;;;4197586;28;20494;-37
2022/01/08 09:34:45;;;;;;;0.00;0.00;;;;;;;;;;4197694;28;20041;-34
2022/01/08 09:36:47;;;;;;;0.10;0.10;;;;;;;;;;4197176;28;20121;-33
2022/01/08 09:38:48;;;;;;;0.38;0.10;;;;;;;;;;4197787;28;20044;-37
2022/01/08 09:40:49;;;;;;;0.00;0.00;;;;;;;;;;4197637;28;20060;-33
2022/01/08 09:42:51;;;;;;;0.00;0.00;;;;;;;;;;4197524;28;20166;-33
2022/01/08 09:44:52;;;;;;;0.10;0.10;;;;;;;;;;4197507;28;20495;-33
2022/01/08 09:46:53;;;;;;;0.03;0.03;;;;;;;;;;4197330;28;20128;-32
2022/01/08 09:48:54;;;;;;;0.00;0.00;;;;;;;;;;4197412;28;20270;-35
2022/01/08 09:50:55;;;;;;;0.03;0.03;;;;;;;;;;4197723;28;20126;-33
2022/01/08 09:52:58;;;;;;;0.00;0.00;;;;;;;;;;4196866;28;20477;-34
2022/01/08 09:54:59;;;;;;;0.10;0.10;;;;;;;;;;4197366;28;20052;-34
2022/01/08 09:57:00;;;;;;;0.00;0.00;;;;;;;;;;4197106;28;20447;-32
2022/01/08 09:59:01;;;;;;;0.10;0.10;;;;;;;;;;4197321;28;20052;-34
2022/01/08 10:01:02;;;;;;;0.63;0.00;;;;;;;;;;4197492;28;20079;-36
2022/01/08 10:03:16;;;;;;;0.00;0.00;;;;;;;;;;4197335;28;20094;-34
2022/01/08 10:05:17;;;;;;;0.10;0.00;;;;;;;;;;4197277;28;20505;-34
2022/01/08 10:07:22;;;;;;;0.10;0.00;;;;;;;;;;4196663;28;20071;-34
2022/01/08 10:09:23;;;;;;;0.00;0.00;;;;;;;;;;4197481;28;20057;-34
2022/01/08 10:11:25;;;;;;;0.10;0.10;;;;;;;;;;4197297;28;20067;-35
2022/01/08 10:13:32;;;;;;;0.00;0.00;;;;;;;;;;4196990;28;20144;-37
2022/01/08 10:17:56;;;;;;;0.00;0.00;;;;;;;;;;4196889;28;20349;-32
2022/01/08 10:19:57;;;;;;;0.00;0.00;;;;;;;;;;4196991;28;20052;-32
2022/01/08 10:21:58;;;;;;;0.20;0.10;;;;;;;;;;4196509;28;20213;-35
2022/01/08 10:24:00;;;;;;;0.10;0.10;;;;;;;;;;4196780;28;20064;-34
2022/01/08 10:26:10;;;;;;;0.00;0.00;;;;;;;;;;4197245;28;20186;-33
2022/01/08 10:28:11;;;;;;;0.10;0.10;;;;;;;;;;4197159;28;20048;-33
2022/01/08 10:30:22;;;;;;;0.00;0.00;;;;;;;;;;4196843;28;20052;-33
2022/01/08 10:32:27;;;;;;;0.10;0.10;;;;;;;;;;4195713;28;20044;-32
2022/01/08 10:34:30;;;;;;;0.10;0.10;;;;;;;;;;4197165;28;20041;-34
2022/01/08 10:36:32;;;;;;;0.38;0.10;;;;;;;;;;4196989;28;20404;-32
2022/01/08 10:38:33;;;;;;;0.00;0.00;;;;;;;;;;4196275;28;20488;-36
2022/01/08 10:40:34;;;;;;;0.00;0.00;;;;;;;;;;4196881;28;20095;-34
2022/01/08 10:42:37;;;;;;;0.00;0.00;;;;;;;;;;4195430;28;20189;-34
2022/01/08 10:44:39;;;;;;;0.08;0.08;;;;;;;;;;4195502;28;20512;-35
2022/01/08 10:46:59;;;;;;;0.10;0.00;;;;;;;;;;4196524;28;20053;-34
2022/01/08 10:49:00;;;;;;;0.65;0.00;;;;;;;;;;4196825;28;20106;-33
2022/01/08 10:51:08;;;;;;;0.10;0.10;;;;;;;;;;4196647;28;20378;-34
2022/01/08 10:53:09;;;;;;;0.10;0.10;;;;;;;;;;4195205;28;20114;-37
2022/01/08 10:55:10;;;;;;;0.00;0.00;;;;;;;;;;4196683;28;20056;-35
2022/01/08 10:57:14;;;;;;;0.10;0.08;;;;;;;;;;4195524;28;20052;-37
2022/01/08 10:59:15;;;;;;;0.08;0.00;;;;;;;;;;4195443;28;20585;-34
2022/01/08 11:01:34;;;;;;;0.00;0.00;;;;;;;;;;4196967;28;20053;-32
2022/01/08 11:03:39;;;;;;;0.20;0.00;;;;;;;;;;4196623;28;20081;-32
2022/01/08 11:05:59;;;;;;;0.10;0.00;;;;;;;;;;4196630;28;20048;-33
2022/01/08 11:08:14;;;;;;;0.13;0.08;;;;;;;;;;4196087;28;20053;-35
2022/01/08 11:10:17;;;;;;;0.10;0.00;;;;;;;;;;4200265;28;20101;-34
2022/01/08 11:12:22;;;;;;;0.00;0.00;;;;;;;;;;4199809;28;20048;-36
2022/01/08 11:16:53;;;;;;;0.00;0.00;;;;;;;;;;4199788;28;20044;-34
2022/01/08 11:18:54;;;;;;;0.00;0.00;;;;;;;;;;4198573;28;20141;-32
2022/01/08 11:20:56;;;;;;;0.00;0.00;;;;;;;;;;4199772;28;20056;-33
2022/01/08 11:22:59;;;;;;;0.10;0.10;;;;;;;;;;4199218;28;20064;-33
2022/01/08 11:25:03;;;;;;;0.00;0.00;;;;;;;;;;4199826;28;20060;-32
2022/01/08 11:27:07;;;;;;;0.00;0.00;;;;;;;;;;4199500;28;20484;-35
2022/01/08 11:29:09;;;;;;;0.13;0.10;;;;;;;;;;4199742;28;20461;-34
2022/01/08 11:31:11;;;;;;;0.00;0.00;;;;;;;;;;4186634;28;20064;-32
2022/01/08 11:33:20;;;;;;;0.00;0.00;;;;;;;;;;4182795;28;20378;-33
2022/01/08 11:35:23;;;;;;;0.05;0.05;;;;;;;;;;4183192;28;20489;-32
2022/01/08 11:37:25;;;;;;;0.00;0.00;;;;;;;;;;4182503;28;20049;-35
2022/01/08 11:39:27;;;;;;;0.10;0.10;;;;;;;;;;4183027;28;20053;-32
2022/01/08 11:41:31;;;;;;;0.10;0.10;;;;;;;;;;4182982;28;20569;-33
2022/01/08 11:43:33;;;;;;;0.00;0.00;;;;;;;;;;4182877;28;20053;-34
2022/01/08 11:45:39;;;;;;;0.20;0.10;;;;;;;;;;4183040;28;20052;-35
2022/01/08 11:47:45;;;;;;;0.00;0.00;;;;;;;;;;4182715;28;20444;-35
2022/01/08 11:49:47;;;;;;;0.47;0.10;;;;;;;;;;4182939;28;20053;-32
2022/01/08 11:52:08;;;;;;;0.10;0.10;;;;;;;;;;4182299;28;20049;-32
2022/01/08 11:54:09;;;;;;;0.10;0.10;;;;;;;;;;4182782;28;20537;-34
2022/01/08 11:56:20;;;;;;;0.43;0.20;;;;;;;;;;4182800;28;20053;-33
2022/01/08 11:58:30;;;;;;;0.10;0.10;;;;;;;;;;4182587;28;20053;-33
2022/01/08 12:00:47;;;;;;;0.10;0.10;;;;;;;;;;4182862;28;20053;-34
2022/01/08 12:02:48;;;;;;;0.10;0.00;;;;;;;;;;4181371;28;20653;-34
2022/01/08 12:04:51;;;;;;;0.00;0.00;;;;;;;;;;4182615;28;20048;-34
2022/01/08 12:06:52;;;;;;;0.13;0.10;;;;;;;;;;4182190;28;20057;-33
2022/01/08 12:09:07;;;;;;;0.10;0.10;;;;;;;;;;4182851;28;20490;-38
2022/01/08 12:11:08;;;;;;;0.10;0.10;;;;;;;;;;4182658;28;20053;-33
2022/01/08 12:13:09;;;;;;;0.28;0.10;;;;;;;;;;4182562;28;20049;-36
2022/01/08 12:15:10;;;;;;;0.10;0.10;;;;;;;;;;4182801;28;20162;-34
2022/01/08 12:17:19;;;;;;;0.00;0.00;;;;;;;;;;4182322;28;20099;-32
2022/01/08 12:19:29;;;;;;;0.10;0.10;;;;;;;;;;4182330;28;20405;-34
2022/01/08 12:21:31;;;;;;;0.00;0.00;;;;;;;;;;4181479;28;20094;-32
2022/01/08 12:23:33;;;;;;;0.10;0.00;;;;;;;;;;4181848;28;20053;-34
2022/01/08 12:25:39;;;;;;;0.22;0.20;;;;;;;;;;4181025;28;20052;-36
2022/01/08 12:27:43;;;;;;;0.00;0.00;;;;;;;;;;4182021;28;20178;-33
2022/01/08 12:29:44;;;;;;;0.20;0.10;;;;;;;;;;4182267;28;20053;-34
2022/01/08 12:31:49;;;;;;;0.00;0.00;;;;;;;;;;4182104;28;20110;-32
2022/01/08 12:34:10;;;;;;;0.13;0.10;;;;;;;;;;4182153;28;20102;-34
2022/01/08 12:36:26;;;;;;;0.13;0.10;;;;;;;;;;4182135;28;20171;-35